Waldport, OR

3:53 PM PST on January 22, 2017 (GMT -0800)
Alsea Highlands | | Change Station
Active Advisory: Gale Warning

Elev 200 ft 44.44 °N, 124.07 °W | Updated 1 minute ago

Overcast
Overcast
41.6 °F
Feels Like 36 °F
N
10.0
Wind Variable Wind from SSE
Gusts 11.0 mph

Today
High -- | Low -- °F
--% Chance of Precip.
Yesterday
High -- | Low -- °F
Precip. -- in
Pressure 29.53 in
Visibility 5.0 miles
Clouds Scattered Clouds 700 ft
Mostly Cloudy 1300 ft
Mostly Cloudy 2200 ft
Windchill 36 °F
Dew Point 40 °F
Humidity 94%
Rainfall 0.49 in
Snow Depth Not available.
7:44 AM 5:12 PM
Waning Crescent, 23% visible
METAR KONP 222335Z AUTO 14009G18KT 5SM -RA SCT007 BKN013 BKN022 05/03 A2953 RMK AO2 P0003
Pressure 29.53 in
Visibility 5.0 miles
Clouds Scattered Clouds 700 ft
Mostly Cloudy 1300 ft
Mostly Cloudy 2200 ft
Windchill 36 °F
Dew Point 40 °F
Humidity 94%
Rainfall 0.49 in
Snow Depth Not available.
7:44 AM 5:12 PM
Waning Crescent, 23% visible
METAR KONP 222335Z AUTO 14009G18KT 5SM -RA SCT007 BKN013 BKN022 05/03 A2953 RMK AO2 P0003

Get Your Daily Forecast Email!

Thanks for signing up!

Be on the lookout for a verification email in your inbox.

You'll start receiving the daily forecast at 8 AM.

×

10-Day Weather Forecast

Almanac

Astronomy

Jan. 22, 2017 Rise Set
Actual Time
Civil Twilight
Nautical Twilight
Astronomical Twilight
Moon
Length of Visible Light
Length of Day
Tomorrow will be .
, % of the Moon is Illuminated

Today's Extremes

State Highs State Lows

Community

WunderPhotos

Upload Photos

1,962,540 photos uploaded!

WunderBlog® & News

Nearby

Air Quality

  Air Quality AQ Index Pollutant
Not available.

Snow Depth

Station Depth Elevation

Earthquake Activity

City Distance Mag. Time & Date
Minimum magnitude displayed is 2.5.

Coastal Water Temperatures

Place Temperature

Stations

Nearby Weather Stations

Station Location Temp. Windchill Dew Point Humidity Wind Precip. Elev Updated Type
                   

Watches & Warnings

Gale Warning
Issued: 2:19 PM PST Jan. 22, 2017 – National Weather Service

... Gale Warning remains in effect until 10 PM PST this evening...

* winds... south to southeast 20 to 30 kt with gusts to 45 kt.

Precautionary/preparedness actions...

A Gale Warning means winds of 34 to 47 knots are imminent or
occurring. Operating a vessel in gale conditions requires
experience and properly equipped vessels. It is highly
recommended that mariners without the proper experience seek safe
Harbor prior to the onset of gale conditions.